Jennifer — WDF6480 — position and weather

sailwx.info

Track history (hours):
 
Tides and Currents Weather Stations Pressure Air Temp Water Temp Dewpoint Dewpoint Depression Visibility Wind Speed Wind Dir Waves Ship Positions

Jennifer

Owner: John W. Stone Oil Distributor, L.L.C., Gretna, LA. More information available from US FCC via Universal Licensing System and Coast Guard Vessel Documentation Center.

Last reported at 2016-Jul-22 14:22 UTC. Time now 2016-Jul-25 04:17 UTC.
Position N 29°56' W 090°10'.

Length 17 m; draft 3 m.

Type: Tug. MMSI: 367474690.

Date/timePositionNaut miles runAvg speedWind from/ knotsBaromVisibWave heightAir tempDewpointWater temp
2016-Jul-22 14:22N 29°56' W 090°10'3 3.8
2016-Jul-22 13:33N 29°55' W 090°07'4 3.6
2016-Jul-22 12:33N 29°56' W 090°03'0 0.4
2016-Jul-22 11:33N 29°55' W 090°04'0 0.0
2016-Jul-22 10:33N 29°55' W 090°04'0 0.0
2016-Jul-22 09:33N 29°55' W 090°04'0 0.0
2016-Jul-22 08:33N 29°55' W 090°04'0 0.0
2016-Jul-22 07:33N 29°55' W 090°04'0 0.0
2016-Jul-22 05:33N 29°55' W 090°04'0 0.0
2016-Jul-22 04:33N 29°55' W 090°04'0 0.0
2016-Jul-22 03:33N 29°55' W 090°04'0 0.0
2016-Jul-22 02:33N 29°55' W 090°04'0 0.0
2016-Jul-22 01:33N 29°55' W 090°04'0 0.0
2016-Jul-22 00:33N 29°55' W 090°04'0 0.0
2016-Jul-21 23:33N 29°55' W 090°04'0 0.0
2016-Jul-21 22:33N 29°55' W 090°04'0 0.0
2016-Jul-21 21:33N 29°55' W 090°04'1 0.9
2016-Jul-21 20:33N 29°55' W 090°05'0 0.3
2016-Jul-21 19:33N 29°55' W 090°05'0 0.0
2016-Jul-21 18:33N 29°55' W 090°05'1 1.1
2016-Jul-21 17:33N 29°55' W 090°04'0 0.2
2016-Jul-21 16:33N 29°56' W 090°04'0 0.0
2016-Jul-21 15:33N 29°56' W 090°04'0 0.0
2016-Jul-21 14:33N 29°56' W 090°04'0 0.1
2016-Jul-21 13:33N 29°56' W 090°04'2 2.0
2016-Jul-21 12:33N 29°57' W 090°03'3 2.6
2016-Jul-21 11:33N 29°57' W 089°60'0 0.0
2016-Jul-21 10:33N 29°57' W 089°60'0 0.0
2016-Jul-21 09:33N 29°57' W 089°60'0 0.0
2016-Jul-21 08:33N 29°57' W 089°60'0 0.0
2016-Jul-21 07:33N 29°57' W 089°60'0 0.0
2016-Jul-21 06:33N 29°57' W 089°60'0 0.0
2016-Jul-21 05:33N 29°57' W 089°60'0 0.0
2016-Jul-21 04:33N 29°57' W 089°60'0 0.0
2016-Jul-21 03:33N 29°57' W 089°60'0 0.0
2016-Jul-21 02:33N 29°57' W 089°60'0 0.0
2016-Jul-21 01:34N 29°57' W 089°60'3 3.4
2016-Jul-21 00:33N 29°56' W 090°04'0 0.5
2016-Jul-20 23:33N 29°56' W 090°03'1 0.7
2016-Jul-20 22:33N 29°55' W 090°04'0 0.0
2016-Jul-20 21:33N 29°55' W 090°04'0 0.0
2016-Jul-20 20:33N 29°55' W 090°04'0 0.0
2016-Jul-20 19:33N 29°55' W 090°04'0 0.0
2016-Jul-20 18:33N 29°55' W 090°04'0 0.0
2016-Jul-20 17:33N 29°55' W 090°04'0 0.4
2016-Jul-20 16:33N 29°56' W 090°04'0 0.3
2016-Jul-20 15:33N 29°55' W 090°04'0 0.0
2016-Jul-20 14:33N 29°55' W 090°04'0 0.0
2016-Jul-20 13:33N 29°55' W 090°04'0 0.2
2016-Jul-20 12:34N 29°56' W 090°04'3 2.9
2016-Jul-20 11:34N 29°55' W 090°07'5 0.3
2016-Jul-19 20:34N 29°55' W 090°12'3 3.5
2016-Jul-19 19:34N 29°56' W 090°08'4 4.1
2016-Jul-19 18:34N 29°55' W 090°04'0 0.3
2016-Jul-19 17:33N 29°56' W 090°04'2 2.3
2016-Jul-19 16:34N 29°57' W 090°01'5 5.3
2016-Jul-19 15:33N 29°55' W 089°56'3 2.7
2016-Jul-19 14:33N 29°53' W 089°57'6 5.5
2016-Jul-19 13:31N 29°48' W 090°00'2 0.2
2016-Jul-19 02:08N 29°46' W 090°01'5 9.3
2016-Jul-19 01:33N 29°51' W 089°59'5 4.9
2016-Jul-19 00:33N 29°55' W 089°56'5 4.9
2016-Jul-18 23:33N 29°57' W 090°01'0 0.0
2016-Jul-18 22:34N 29°57' W 090°01'0 0.0
2016-Jul-18 21:34N 29°57' W 090°01'0 0.0
2016-Jul-18 20:34N 29°57' W 090°01'3 2.6
2016-Jul-18 19:34N 29°56' W 090°04'0 0.2
2016-Jul-18 18:34N 29°55' W 090°04'0 0.0
2016-Jul-18 17:34N 29°55' W 090°04'0 0.0
2016-Jul-18 16:34N 29°55' W 090°04'0 0.0
2016-Jul-18 15:34N 29°55' W 090°04'0 0.0
2016-Jul-18 14:34N 29°55' W 090°04'0 0.0
2016-Jul-18 13:34N 29°55' W 090°04'0 0.0
2016-Jul-18 04:33N 29°56' W 090°04'0 0.0
2016-Jul-18 03:33N 29°56' W 090°04'5 5.2
2016-Jul-18 02:33N 29°57' W 090°09'1 0.1
2016-Jul-17 12:24N 29°57' W 090°10'3 4.0
2016-Jul-17 11:34N 29°55' W 090°07'3 3.2
2016-Jul-17 10:34N 29°56' W 090°04'0 0.2
2016-Jul-17 09:34N 29°55' W 090°04'0 0.0
2016-Jul-17 08:34N 29°55' W 090°04'0 0.0
2016-Jul-17 07:34N 29°55' W 090°04'0 0.0
2016-Jul-17 06:34N 29°55' W 090°04'0 0.0
2016-Jul-17 04:34N 29°55' W 090°04'0 0.0
2016-Jul-17 03:34N 29°55' W 090°04'2 2.1
2016-Jul-17 02:34N 29°54' W 090°05'0 0.0
2016-Jul-16 23:33N 29°54' W 090°05'0 0.0
2016-Jul-16 22:33N 29°54' W 090°05'0 0.0
2016-Jul-16 21:33N 29°54' W 090°05'0 0.0
2016-Jul-16 20:33N 29°54' W 090°05'0 0.0
2016-Jul-16 19:33N 29°54' W 090°05'0 0.0
2016-Jul-16 18:33N 29°54' W 090°05'0 0.0
2016-Jul-16 17:33N 29°54' W 090°05'0 0.0
2016-Jul-16 16:33N 29°54' W 090°05'0 0.0
2016-Jul-16 15:33N 29°54' W 090°05'0 0.0
2016-Jul-16 14:33N 29°54' W 090°05'0 0.0
2016-Jul-16 13:33N 29°54' W 090°05'0 0.0
2016-Jul-16 12:33N 29°54' W 090°05'0 0.0
2016-Jul-16 11:33N 29°54' W 090°05'0 0.0
2016-Jul-16 10:33N 29°54' W 090°05'0 0.0
2016-Jul-16 09:33N 29°54' W 090°05'0 0.0
2016-Jul-16 08:33N 29°54' W 090°05'0 0.0
2016-Jul-16 07:33N 29°54' W 090°05'0 0.0
2016-Jul-16 06:33N 29°54' W 090°05'0 0.0
2016-Jul-16 04:33N 29°54' W 090°05'0 0.0
2016-Jul-16 03:33N 29°54' W 090°05'0 0.0
2016-Jul-16 02:33N 29°54' W 090°05'0 0.0
2016-Jul-16 01:33N 29°54' W 090°05'0 0.0
2016-Jul-16 00:33N 29°54' W 090°05'0 0.0
2016-Jul-15 23:33N 29°54' W 090°05'0 0.0
2016-Jul-15 22:33N 29°54' W 090°05'0 0.0
2016-Jul-15 21:33N 29°54' W 090°05'0 0.0
2016-Jul-15 20:33N 29°54' W 090°05'0 0.0
2016-Jul-15 19:33N 29°54' W 090°05'0 0.0
2016-Jul-15 18:33N 29°54' W 090°05'0 0.0
2016-Jul-15 17:33N 29°54' W 090°05'0 0.0
2016-Jul-15 16:33N 29°54' W 090°05'0 0.0
2016-Jul-15 15:33N 29°54' W 090°05'0 0.0
2016-Jul-15 14:33N 29°54' W 090°05'0 0.0
2016-Jul-15 13:33N 29°54' W 090°05'0 0.0
2016-Jul-15 12:33N 29°54' W 090°05'0 0.0
2016-Jul-15 11:33N 29°54' W 090°05'0 0.0
2016-Jul-15 10:33N 29°54' W 090°05'0 0.0
2016-Jul-15 09:33N 29°54' W 090°05'0 0.0
2016-Jul-15 08:33N 29°54' W 090°05'0 0.0
2016-Jul-15 07:33N 29°54' W 090°05'0 0.0
2016-Jul-15 06:33N 29°54' W 090°05'0 0.0
2016-Jul-15 05:33N 29°54' W 090°05'0 0.0
2016-Jul-14 15:34N 29°54' W 090°05'2 2.1
2016-Jul-14 14:34N 29°55' W 090°04'0 0.1
2016-Jul-14 13:34N 29°55' W 090°04'0 0.0
2016-Jul-14 12:34N 29°55' W 090°04'3 3.1
2016-Jul-14 11:34N 29°56' W 090°00'5 4.8
2016-Jul-14 10:34N 29°55' W 089°55'3 2.9
2016-Jul-14 09:33N 29°53' W 089°57'5 4.5
2016-Jul-14 08:33N 29°49' W 090°00'3 0.5
2016-Jul-14 02:11N 29°46' W 090°01'5 8.4
2016-Jul-14 01:33N 29°50' W 089°59'6 5.6
2016-Jul-14 00:34N 29°54' W 089°55'8 8.1
2016-Jul-13 23:34N 29°58' W 090°03'2 2.2
2016-Jul-13 22:34N 29°55' W 090°04'0 0.0
2016-Jul-13 21:34N 29°55' W 090°04'0 0.3
2016-Jul-13 20:34N 29°56' W 090°03'0 0.0
2016-Jul-13 19:34N 29°56' W 090°03'0 0.0
2016-Jul-13 18:34N 29°56' W 090°03'0 0.0
2016-Jul-13 17:34N 29°56' W 090°03'0 0.0
2016-Jul-13 16:34N 29°56' W 090°03'0 0.0
2016-Jul-13 15:34N 29°56' W 090°04'0 0.3
2016-Jul-13 14:34N 29°55' W 090°04'0 0.0
2016-Jul-13 13:34N 29°55' W 090°04'0 0.0
2016-Jul-13 12:34N 29°55' W 090°04'0 0.0
2016-Jul-13 11:34N 29°55' W 090°04'0 0.0
2016-Jul-13 10:34N 29°55' W 090°04'0 0.0
2016-Jul-13 09:33N 29°55' W 090°04'0 0.0
2016-Jul-13 08:34N 29°55' W 090°04'0 0.0
2016-Jul-13 07:33N 29°55' W 090°04'0 0.0
2016-Jul-13 06:34N 29°55' W 090°04'0 0.0
2016-Jul-13 05:34N 29°55' W 090°04'1 0.6
2016-Jul-13 04:34N 29°55' W 090°04'0 0.0
2016-Jul-13 03:33N 29°55' W 090°04'1 0.6
2016-Jul-13 02:34N 29°55' W 090°04'0 0.0
2016-Jul-13 01:34N 29°55' W 090°04'0 0.0
2016-Jul-13 00:34N 29°55' W 090°04'0 0.3
2016-Jul-12 23:34N 29°55' W 090°04'3 2.7
2016-Jul-12 22:34N 29°57' W 090°01'1 1.4
2016-Jul-12 21:34N 29°57' W 089°60'0 0.0
2016-Jul-12 20:34N 29°57' W 089°60'3 3.3
2016-Jul-12 19:34N 29°57' W 090°04'2 1.6
2016-Jul-12 18:34N 29°55' W 090°04'0 0.0
2016-Jul-12 17:34N 29°55' W 090°04'0 0.0
2016-Jul-12 16:33N 29°55' W 090°04'0 0.0
2016-Jul-12 15:34N 29°55' W 090°04'0 0.0
2016-Jul-12 14:34N 29°55' W 090°04'  
Track history (hours):
 
Tides and Currents Weather Stations Pressure Air Temp Water Temp Dewpoint Dewpoint Depression Visibility Wind Speed Wind Dir Waves Ship Positions

Jennifer

Owner: John W. Stone Oil Distributor, L.L.C., Gretna, LA. More information available from US FCC via Universal Licensing System and Coast Guard Vessel Documentation Center.

Last reported at 2016-Jul-22 14:22 UTC. Time now 2016-Jul-25 04:17 UTC.
Position N 29°56' W 090°10'.

Length 17 m; draft 3 m.

Type: Tug. MMSI: 367474690.

Date/timePositionNaut miles runAvg speedWind from/ knotsBaromVisibWave heightAir tempDewpointWater temp
2016-Jul-22 14:22N 29°56' W 090°10'3 3.8
2016-Jul-22 13:33N 29°55' W 090°07'4 3.6
2016-Jul-22 12:33N 29°56' W 090°03'0 0.4
2016-Jul-22 11:33N 29°55' W 090°04'0 0.0
2016-Jul-22 10:33N 29°55' W 090°04'0 0.0
2016-Jul-22 09:33N 29°55' W 090°04'0 0.0
2016-Jul-22 08:33N 29°55' W 090°04'0 0.0
2016-Jul-22 07:33N 29°55' W 090°04'0 0.0
2016-Jul-22 05:33N 29°55' W 090°04'0 0.0
2016-Jul-22 04:33N 29°55' W 090°04'0 0.0
2016-Jul-22 03:33N 29°55' W 090°04'0 0.0
2016-Jul-22 02:33N 29°55' W 090°04'0 0.0
2016-Jul-22 01:33N 29°55' W 090°04'0 0.0
2016-Jul-22 00:33N 29°55' W 090°04'0 0.0
2016-Jul-21 23:33N 29°55' W 090°04'0 0.0
2016-Jul-21 22:33N 29°55' W 090°04'0 0.0
2016-Jul-21 21:33N 29°55' W 090°04'1 0.9
2016-Jul-21 20:33N 29°55' W 090°05'0 0.3
2016-Jul-21 19:33N 29°55' W 090°05'0 0.0
2016-Jul-21 18:33N 29°55' W 090°05'1 1.1
2016-Jul-21 17:33N 29°55' W 090°04'0 0.2
2016-Jul-21 16:33N 29°56' W 090°04'0 0.0
2016-Jul-21 15:33N 29°56' W 090°04'0 0.0
2016-Jul-21 14:33N 29°56' W 090°04'0 0.1
2016-Jul-21 13:33N 29°56' W 090°04'2 2.0
2016-Jul-21 12:33N 29°57' W 090°03'3 2.6
2016-Jul-21 11:33N 29°57' W 089°60'0 0.0
2016-Jul-21 10:33N 29°57' W 089°60'0 0.0
2016-Jul-21 09:33N 29°57' W 089°60'0 0.0
2016-Jul-21 08:33N 29°57' W 089°60'0 0.0
2016-Jul-21 07:33N 29°57' W 089°60'0 0.0
2016-Jul-21 06:33N 29°57' W 089°60'0 0.0
2016-Jul-21 05:33N 29°57' W 089°60'0 0.0
2016-Jul-21 04:33N 29°57' W 089°60'0 0.0
2016-Jul-21 03:33N 29°57' W 089°60'0 0.0
2016-Jul-21 02:33N 29°57' W 089°60'0 0.0
2016-Jul-21 01:34N 29°57' W 089°60'3 3.4
2016-Jul-21 00:33N 29°56' W 090°04'0 0.5
2016-Jul-20 23:33N 29°56' W 090°03'1 0.7
2016-Jul-20 22:33N 29°55' W 090°04'0 0.0
2016-Jul-20 21:33N 29°55' W 090°04'0 0.0
2016-Jul-20 20:33N 29°55' W 090°04'0 0.0
2016-Jul-20 19:33N 29°55' W 090°04'0 0.0
2016-Jul-20 18:33N 29°55' W 090°04'0 0.0
2016-Jul-20 17:33N 29°55' W 090°04'0 0.4
2016-Jul-20 16:33N 29°56' W 090°04'0 0.3
2016-Jul-20 15:33N 29°55' W 090°04'0 0.0
2016-Jul-20 14:33N 29°55' W 090°04'0 0.0
2016-Jul-20 13:33N 29°55' W 090°04'0 0.2
2016-Jul-20 12:34N 29°56' W 090°04'3 2.9
2016-Jul-20 11:34N 29°55' W 090°07'5 0.3
2016-Jul-19 20:34N 29°55' W 090°12'3 3.5
2016-Jul-19 19:34N 29°56' W 090°08'4 4.1
2016-Jul-19 18:34N 29°55' W 090°04'0 0.3
2016-Jul-19 17:33N 29°56' W 090°04'2 2.3
2016-Jul-19 16:34N 29°57' W 090°01'5 5.3
2016-Jul-19 15:33N 29°55' W 089°56'3 2.7
2016-Jul-19 14:33N 29°53' W 089°57'6 5.5
2016-Jul-19 13:31N 29°48' W 090°00'2 0.2
2016-Jul-19 02:08N 29°46' W 090°01'5 9.3
2016-Jul-19 01:33N 29°51' W 089°59'5 4.9
2016-Jul-19 00:33N 29°55' W 089°56'5 4.9
2016-Jul-18 23:33N 29°57' W 090°01'0 0.0
2016-Jul-18 22:34N 29°57' W 090°01'0 0.0
2016-Jul-18 21:34N 29°57' W 090°01'0 0.0
2016-Jul-18 20:34N 29°57' W 090°01'3 2.6
2016-Jul-18 19:34N 29°56' W 090°04'0 0.2
2016-Jul-18 18:34N 29°55' W 090°04'0 0.0
2016-Jul-18 17:34N 29°55' W 090°04'0 0.0
2016-Jul-18 16:34N 29°55' W 090°04'0 0.0
2016-Jul-18 15:34N 29°55' W 090°04'0 0.0
2016-Jul-18 14:34N 29°55' W 090°04'0 0.0
2016-Jul-18 13:34N 29°55' W 090°04'0 0.0
2016-Jul-18 04:33N 29°56' W 090°04'0 0.0
2016-Jul-18 03:33N 29°56' W 090°04'5 5.2
2016-Jul-18 02:33N 29°57' W 090°09'1 0.1
2016-Jul-17 12:24N 29°57' W 090°10'3 4.0
2016-Jul-17 11:34N 29°55' W 090°07'3 3.2
2016-Jul-17 10:34N 29°56' W 090°04'0 0.2
2016-Jul-17 09:34N 29°55' W 090°04'0 0.0
2016-Jul-17 08:34N 29°55' W 090°04'0 0.0
2016-Jul-17 07:34N 29°55' W 090°04'0 0.0
2016-Jul-17 06:34N 29°55' W 090°04'0 0.0
2016-Jul-17 04:34N 29°55' W 090°04'0 0.0
2016-Jul-17 03:34N 29°55' W 090°04'2 2.1
2016-Jul-17 02:34N 29°54' W 090°05'0 0.0
2016-Jul-16 23:33N 29°54' W 090°05'0 0.0
2016-Jul-16 22:33N 29°54' W 090°05'0 0.0
2016-Jul-16 21:33N 29°54' W 090°05'0 0.0
2016-Jul-16 20:33N 29°54' W 090°05'0 0.0
2016-Jul-16 19:33N 29°54' W 090°05'0 0.0
2016-Jul-16 18:33N 29°54' W 090°05'0 0.0
2016-Jul-16 17:33N 29°54' W 090°05'0 0.0
2016-Jul-16 16:33N 29°54' W 090°05'0 0.0
2016-Jul-16 15:33N 29°54' W 090°05'0 0.0
2016-Jul-16 14:33N 29°54' W 090°05'0 0.0
2016-Jul-16 13:33N 29°54' W 090°05'0 0.0
2016-Jul-16 12:33N 29°54' W 090°05'0 0.0
2016-Jul-16 11:33N 29°54' W 090°05'0 0.0
2016-Jul-16 10:33N 29°54' W 090°05'0 0.0
2016-Jul-16 09:33N 29°54' W 090°05'0 0.0
2016-Jul-16 08:33N 29°54' W 090°05'0 0.0
2016-Jul-16 07:33N 29°54' W 090°05'0 0.0
2016-Jul-16 06:33N 29°54' W 090°05'0 0.0
2016-Jul-16 04:33N 29°54' W 090°05'0 0.0
2016-Jul-16 03:33N 29°54' W 090°05'0 0.0
2016-Jul-16 02:33N 29°54' W 090°05'0 0.0
2016-Jul-16 01:33N 29°54' W 090°05'0 0.0
2016-Jul-16 00:33N 29°54' W 090°05'0 0.0
2016-Jul-15 23:33N 29°54' W 090°05'0 0.0
2016-Jul-15 22:33N 29°54' W 090°05'0 0.0
2016-Jul-15 21:33N 29°54' W 090°05'0 0.0
2016-Jul-15 20:33N 29°54' W 090°05'0 0.0
2016-Jul-15 19:33N 29°54' W 090°05'0 0.0
2016-Jul-15 18:33N 29°54' W 090°05'0 0.0
2016-Jul-15 17:33N 29°54' W 090°05'0 0.0
2016-Jul-15 16:33N 29°54' W 090°05'0 0.0
2016-Jul-15 15:33N 29°54' W 090°05'0 0.0
2016-Jul-15 14:33N 29°54' W 090°05'0 0.0
2016-Jul-15 13:33N 29°54' W 090°05'0 0.0
2016-Jul-15 12:33N 29°54' W 090°05'0 0.0
2016-Jul-15 11:33N 29°54' W 090°05'0 0.0
2016-Jul-15 10:33N 29°54' W 090°05'0 0.0
2016-Jul-15 09:33N 29°54' W 090°05'0 0.0
2016-Jul-15 08:33N 29°54' W 090°05'0 0.0
2016-Jul-15 07:33N 29°54' W 090°05'0 0.0
2016-Jul-15 06:33N 29°54' W 090°05'0 0.0
2016-Jul-15 05:33N 29°54' W 090°05'0 0.0
2016-Jul-14 15:34N 29°54' W 090°05'2 2.1
2016-Jul-14 14:34N 29°55' W 090°04'0 0.1
2016-Jul-14 13:34N 29°55' W 090°04'0 0.0
2016-Jul-14 12:34N 29°55' W 090°04'3 3.1
2016-Jul-14 11:34N 29°56' W 090°00'5 4.8
2016-Jul-14 10:34N 29°55' W 089°55'3 2.9
2016-Jul-14 09:33N 29°53' W 089°57'5 4.5
2016-Jul-14 08:33N 29°49' W 090°00'3 0.5
2016-Jul-14 02:11N 29°46' W 090°01'5 8.4
2016-Jul-14 01:33N 29°50' W 089°59'6 5.6
2016-Jul-14 00:34N 29°54' W 089°55'8 8.1
2016-Jul-13 23:34N 29°58' W 090°03'2 2.2
2016-Jul-13 22:34N 29°55' W 090°04'0 0.0
2016-Jul-13 21:34N 29°55' W 090°04'0 0.3
2016-Jul-13 20:34N 29°56' W 090°03'0 0.0
2016-Jul-13 19:34N 29°56' W 090°03'0 0.0
2016-Jul-13 18:34N 29°56' W 090°03'0 0.0
2016-Jul-13 17:34N 29°56' W 090°03'0 0.0
2016-Jul-13 16:34N 29°56' W 090°03'0 0.0
2016-Jul-13 15:34N 29°56' W 090°04'0 0.3
2016-Jul-13 14:34N 29°55' W 090°04'0 0.0
2016-Jul-13 13:34N 29°55' W 090°04'0 0.0
2016-Jul-13 12:34N 29°55' W 090°04'0 0.0
2016-Jul-13 11:34N 29°55' W 090°04'0 0.0
2016-Jul-13 10:34N 29°55' W 090°04'0 0.0
2016-Jul-13 09:33N 29°55' W 090°04'0 0.0
2016-Jul-13 08:34N 29°55' W 090°04'0 0.0
2016-Jul-13 07:33N 29°55' W 090°04'0 0.0
2016-Jul-13 06:34N 29°55' W 090°04'0 0.0
2016-Jul-13 05:34N 29°55' W 090°04'1 0.6
2016-Jul-13 04:34N 29°55' W 090°04'0 0.0
2016-Jul-13 03:33N 29°55' W 090°04'1 0.6
2016-Jul-13 02:34N 29°55' W 090°04'0 0.0
2016-Jul-13 01:34N 29°55' W 090°04'0 0.0
2016-Jul-13 00:34N 29°55' W 090°04'0 0.3
2016-Jul-12 23:34N 29°55' W 090°04'3 2.7
2016-Jul-12 22:34N 29°57' W 090°01'1 1.4
2016-Jul-12 21:34N 29°57' W 089°60'0 0.0
2016-Jul-12 20:34N 29°57' W 089°60'3 3.3
2016-Jul-12 19:34N 29°57' W 090°04'2 1.6
2016-Jul-12 18:34N 29°55' W 090°04'0 0.0
2016-Jul-12 17:34N 29°55' W 090°04'0 0.0
2016-Jul-12 16:33N 29°55' W 090°04'0 0.0
2016-Jul-12 15:34N 29°55' W 090°04'0 0.0
2016-Jul-12 14:34N 29°55' W 090°04'  

Dump ship's entire track history